Time;durP1;ratioP1;P1;durP2;ratioP2;P2;SDS_P1;SDS_P2;PMS_P1;PMS_P2;Temp;Humidity;BMP_temperature;BMP_pressure;BME280_temperature;BME280_humidity;BME280_pressure;Samples;Min_cycle;Max_cycle;Signal;HPM_P1;HPM_P2
2022/05/14 00:01:29;;;;;;;20.13;3.67;;;;;;;18.56;80.51;101905.38;5090122;28;20277;-53
2022/05/14 00:03:56;;;;;;;11.43;2.87;;;;;;;18.20;84.55;101905.88;5088089;28;20270;-54
2022/05/14 00:06:23;;;;;;;11.85;3.00;;;;;;;18.74;78.40;101897.28;5074332;28;20258;-54
2022/05/14 00:08:49;;;;;;;14.77;2.73;;;;;;;18.82;77.38;101890.75;5056341;28;20041;-52
2022/05/14 00:14:03;;;;;;;11.93;3.40;;;;;;;18.77;74.68;101898.69;5072527;28;20040;-53
2022/05/14 00:16:29;;;;;;;14.10;3.50;;;;;;;18.71;76.67;101899.59;5069943;28;20267;-53
2022/05/14 00:18:54;;;;;;;10.23;2.67;;;;;;;18.93;74.36;101897.28;5070800;28;20335;-53
2022/05/14 00:21:22;;;;;;;14.77;3.10;;;;;;;19.02;73.44;101892.41;5060598;28;20033;-53
2022/05/14 00:23:47;;;;;;;8.07;2.57;;;;;;;18.90;74.30;101901.28;5066580;28;20068;-54
2022/05/14 00:26:14;;;;;;;20.00;7.82;;;;;;;18.20;79.70;101895.06;5064303;28;20257;-52
2022/05/14 00:28:40;;;;;;;19.40;4.30;;;;;;;18.59;76.52;101897.66;5063476;28;20038;-55
2022/05/14 00:31:05;;;;;;;14.88;4.20;;;;;;;18.69;77.37;101886.28;5068705;28;20043;-54
2022/05/14 00:33:31;;;;;;;11.32;2.22;;;;;;;18.59;77.36;101885.97;5066463;28;20096;-53
2022/05/14 00:35:56;;;;;;;12.23;3.60;;;;;;;18.68;77.21;101884.63;5065484;28;20033;-53
2022/05/14 00:38:22;;;;;;;13.90;2.72;;;;;;;18.59;77.51;101888.69;5065025;28;20040;-53
2022/05/14 00:40:55;;;;;;;24.52;6.72;;;;;;;18.30;80.93;101885.63;5072337;28;20100;-53
2022/05/14 00:43:22;;;;;;;14.97;3.80;;;;;;;19.29;72.46;101884.78;5089333;28;20066;-55
2022/05/14 00:45:52;;;;;;;10.73;3.25;;;;;;;18.25;82.76;101888.97;5070694;28;20270;-53
2022/05/14 00:48:17;;;;;;;13.33;2.63;;;;;;;18.11;85.62;101892.88;5073565;28;20040;-52
2022/05/14 00:50:54;;;;;;;15.05;3.67;;;;;;;17.99;88.05;101879.16;5086145;28;20312;-51
2022/05/14 00:53:38;;;;;;;10.60;2.60;;;;;;;18.44;81.24;101881.72;5077376;28;20111;-54
2022/05/14 00:56:07;;;;;;;12.63;4.77;;;;;;;19.20;80.63;101876.13;5085870;28;20029;-52
2022/05/14 00:58:38;;;;;;;25.67;9.30;;;;;;;18.24;82.98;101883.81;5084763;28;20309;-52
2022/05/14 01:01:04;;;;;;;12.97;3.30;;;;;;;18.15;85.93;101880.53;5077803;28;20274;-53
2022/05/14 01:03:30;;;;;;;11.43;3.15;;;;;;;17.97;87.66;101876.69;5089708;28;20273;-56
2022/05/14 01:05:59;;;;;;;14.00;3.27;;;;;;;18.19;85.86;101873.63;5079541;28;20044;-51
2022/05/14 01:08:24;;;;;;;19.07;5.57;;;;;;;17.83;90.05;101877.81;5083077;28;20029;-53
2022/05/14 01:10:52;;;;;;;17.60;3.80;;;;;;;18.32;84.93;101876.22;5086985;28;20356;-53
2022/05/14 01:13:17;;;;;;;15.50;2.90;;;;;;;18.10;88.50;101878.50;5075399;28;20082;-55
2022/05/14 01:15:56;;;;;;;17.77;3.80;;;;;;;18.43;84.60;101876.53;5077862;28;20273;-53
2022/05/14 01:18:27;;;;;;;13.27;4.60;;;;;;;18.10;88.01;101880.34;5075278;28;20333;-51
2022/05/14 01:20:55;;;;;;;16.37;3.53;;;;;;;18.42;84.96;101883.81;5102490;28;20315;-51
2022/05/14 01:26:35;;;;;;;9.23;3.03;;;;;;;18.03;90.15;101885.84;5081993;28;20337;-53
2022/05/14 01:29:09;;;;;;;10.90;3.17;;;;;;;18.30;87.86;101885.63;5089270;28;20270;-52
2022/05/14 01:31:36;;;;;;;15.37;4.07;;;;;;;17.87;91.81;101889.84;5076425;28;20276;-51
2022/05/14 01:34:08;;;;;;;14.43;3.67;;;;;;;18.00;92.51;101886.25;5085798;28;20266;-50
2022/05/14 01:36:37;;;;;;;15.57;3.53;;;;;;;17.98;91.95;101896.44;5084476;28;20270;-53
2022/05/14 01:39:03;;;;;;;14.27;3.10;;;;;;;18.01;92.83;101891.47;5077550;28;20304;-52
2022/05/14 01:41:29;;;;;;;13.20;4.00;;;;;;;17.91;93.69;101901.94;5089505;28;20358;-50
2022/05/14 01:43:55;;;;;;;13.43;3.03;;;;;;;17.69;96.20;101896.03;5062287;28;20257;-51
2022/05/14 01:46:21;;;;;;;20.98;3.78;;;;;;;17.77;96.81;101893.06;5083384;28;20277;-52
2022/05/14 01:48:47;;;;;;;16.70;3.23;;;;;;;17.83;95.12;101891.34;5085714;28;20178;-52
2022/05/14 01:51:13;;;;;;;17.38;3.67;;;;;;;17.83;95.11;101894.91;5075410;28;20056;-50
2022/05/14 01:53:38;;;;;;;8.57;3.10;;;;;;;17.42;100.00;101896.16;5088756;28;20037;-52
2022/05/14 01:56:04;;;;;;;17.50;3.40;;;;;;;17.59;98.00;101896.50;5081024;28;20040;-52
2022/05/14 01:58:38;;;;;;;16.87;3.67;;;;;;;18.03;93.44;101900.19;5085209;28;20041;-51
2022/05/14 02:01:08;;;;;;;;;;;;;;;17.65;97.99;101892.94;5076864;28;20301;-52
2022/05/14 02:03:35;;;;;;;13.67;3.93;;;;;;;17.26;100.00;101895.59;5092972;28;19912;-50
2022/05/14 02:06:00;;;;;;;12.10;3.22;;;;;;;17.67;98.10;101906.22;5082813;28;20174;-48
2022/05/14 02:08:26;;;;;;;13.50;3.33;;;;;;;17.45;100.00;101903.84;5086880;28;20029;-50
2022/05/14 02:10:52;;;;;;;21.35;3.55;;;;;;;17.87;96.33;101912.34;5089932;28;20051;-48
2022/05/14 02:13:18;;;;;;;16.77;3.60;;;;;;;17.63;98.49;101900.41;5079463;28;20614;-49
2022/05/14 02:15:44;;;;;;;15.43;3.47;;;;;;;17.44;100.00;101902.19;5091814;28;20041;-52
2022/05/14 02:18:10;;;;;;;15.25;4.00;;;;;;;17.69;97.68;101899.56;5084087;28;20033;-53
2022/05/14 02:20:36;;;;;;;11.85;3.75;;;;;;;17.14;100.00;101895.44;5084418;28;20064;-51
2022/05/14 02:23:03;;;;;;;11.13;4.60;;;;;;;17.42;100.00;101912.38;5091152;28;20040;-51
2022/05/14 02:25:29;;;;;;;10.18;3.22;;;;;;;17.79;97.29;101904.50;5079517;28;20676;-50
2022/05/14 02:27:54;;;;;;;19.10;3.80;;;;;;;17.72;98.16;101903.69;5089984;28;20033;-50
2022/05/14 02:30:20;;;;;;;6.63;2.80;;;;;;;19.59;79.53;101899.41;5085855;28;20100;-49
2022/05/14 02:32:46;;;;;;;17.92;3.60;;;;;;;18.12;87.54;101898.03;5082898;28;20044;-48
2022/05/14 02:35:11;;;;;;;12.13;3.97;;;;;;;17.83;99.88;101899.47;5091872;28;20036;-54
2022/05/14 02:37:37;;;;;;;13.23;3.63;;;;;;;18.26;87.77;101897.94;5079674;28;20040;-53
2022/05/14 02:40:03;;;;;;;12.75;3.33;;;;;;;17.62;95.57;101904.16;5088861;28;20033;-50
2022/05/14 02:42:29;;;;;;;12.73;3.55;;;;;;;17.50;96.73;101909.44;5087006;28;20096;-52
2022/05/14 02:44:55;;;;;;;;;;;;;;;17.37;98.09;101912.22;5081722;28;20040;-50
2022/05/14 02:47:20;;;;;;;13.07;3.57;;;;;;;17.24;100.00;101897.69;5092795;28;19917;-51
2022/05/14 02:49:46;;;;;;;11.75;3.63;;;;;;;17.49;97.13;101907.78;5080824;28;20059;-53
2022/05/14 02:52:13;;;;;;;12.63;3.60;;;;;;;17.23;99.93;101906.84;5086758;28;20049;-48
2022/05/14 02:54:40;;;;;;;10.77;3.63;;;;;;;17.31;98.92;101909.34;5087305;28;20345;-52
2022/05/14 02:57:06;;;;;;;14.05;4.07;;;;;;;18.38;93.76;101909.69;5080681;28;20033;-51
2022/05/14 02:59:31;;;;;;;15.65;4.68;;;;;;;17.15;100.00;101916.03;5092627;28;20041;-52
2022/05/14 03:01:57;;;;;;;13.90;3.43;;;;;;;17.03;100.00;101918.56;5081858;28;20043;-55
2022/05/14 03:04:29;;;;;;;12.13;3.90;;;;;;;18.32;93.89;101911.41;5086331;28;20041;-49
2022/05/14 03:06:58;;;;;;;15.27;4.70;;;;;;;17.19;100.00;101905.63;5088557;28;20052;-51
2022/05/14 03:09:25;;;;;;;12.73;4.28;;;;;;;16.73;100.00;101910.91;5077844;28;20037;-50
2022/05/14 03:11:51;;;;;;;10.57;4.45;;;;;;;17.65;96.29;101908.31;5090639;28;20048;-53
2022/05/14 03:14:17;;;;;;;16.08;5.03;;;;;;;17.79;92.51;101907.22;5083515;28;20036;-50
2022/05/14 03:16:45;;;;;;;18.03;5.37;;;;;;;17.42;99.21;101905.13;5082602;28;20039;-55
2022/05/14 03:19:12;;;;;;;11.95;3.67;;;;;;;17.21;100.00;101906.25;5075683;28;20037;-52
2022/05/14 03:21:38;;;;;;;18.25;5.13;;;;;;;18.23;96.15;101903.81;5078951;28;20032;-48
2022/05/14 03:24:04;;;;;;;22.40;4.80;;;;;;;18.81;86.28;101904.50;5088758;28;20048;-50
2022/05/14 03:26:30;;;;;;;13.38;5.00;;;;;;;17.46;98.49;101891.97;5085136;28;20043;-53
2022/05/14 03:28:56;;;;;;;16.33;4.57;;;;;;;17.41;100.00;101897.22;5080581;28;20029;-50
2022/05/14 03:31:22;;;;;;;12.85;4.30;;;;;;;17.28;100.00;101885.41;5090958;28;20066;-54
2022/05/14 03:33:48;;;;;;;18.58;5.75;;;;;;;17.06;100.00;101891.09;5079191;28;20063;-52
2022/05/14 03:36:13;;;;;;;14.90;5.20;;;;;;;17.22;100.00;101894.38;5087352;28;20041;-52
2022/05/14 03:38:40;;;;;;;19.07;5.10;;;;;;;16.68;100.00;101899.06;5086045;28;20043;-55
2022/05/14 03:41:05;;;;;;;18.38;5.32;;;;;;;17.43;100.00;101895.13;5080274;28;20092;-55
2022/05/14 03:43:32;;;;;;;;;;;;;;;16.94;100.00;101894.66;5092160;28;20052;-53
2022/05/14 03:45:58;;;;;;;14.15;4.65;;;;;;;16.88;100.00;101897.16;5081034;28;19935;-55
2022/05/14 03:48:24;;;;;;;16.07;5.13;;;;;;;17.14;100.00;101897.34;5085694;28;20017;-52
2022/05/14 03:50:50;;;;;;;19.73;5.20;;;;;;;17.60;100.00;101900.84;5088041;28;20067;-54
2022/05/14 03:53:20;;;;;;;14.82;5.72;;;;;;;17.60;100.00;101901.69;5078541;28;20037;-51
2022/05/14 03:55:45;;;;;;;24.77;6.73;;;;;;;17.03;100.00;101896.94;5089893;28;20093;-54
2022/05/14 03:58:11;;;;;;;18.55;5.32;;;;;;;17.08;100.00;101899.00;5082529;28;20277;-54
2022/05/14 04:00:38;;;;;;;16.77;5.40;;;;;;;17.66;100.00;101899.16;5083757;28;20035;-52
2022/05/14 04:03:03;;;;;;;22.05;6.32;;;;;;;17.34;100.00;101895.38;5089592;28;20040;-55
2022/05/14 04:05:29;;;;;;;18.67;5.35;;;;;;;17.44;100.00;101903.03;5077874;28;20040;-52
2022/05/14 04:07:55;;;;;;;16.80;6.05;;;;;;;17.27;100.00;101896.44;5088291;28;20052;-51
2022/05/14 04:10:21;;;;;;;19.08;5.93;;;;;;;17.53;100.00;101894.66;5082847;28;20040;-51
2022/05/14 04:12:47;;;;;;;19.75;5.88;;;;;;;17.18;100.00;101902.09;5081997;28;20064;-52
2022/05/14 04:15:14;;;;;;;21.80;6.37;;;;;;;17.08;100.00;101903.59;5090017;28;20035;-49
2022/05/14 04:17:40;;;;;;;18.92;6.13;;;;;;;17.30;100.00;101899.56;5076775;28;20293;-53
2022/05/14 04:20:07;;;;;;;19.23;6.32;;;;;;;17.44;100.00;101904.91;5087651;28;20051;-53
2022/05/14 04:22:33;;;;;;;17.48;5.78;;;;;;;16.91;100.00;101909.44;5084094;28;20032;-53
2022/05/14 04:24:58;;;;;;;17.48;5.82;;;;;;;17.05;100.00;101913.75;5079563;28;20037;-53
2022/05/14 04:27:24;;;;;;;19.60;5.68;;;;;;;16.82;100.00;101910.69;5090780;28;20056;-54
2022/05/14 04:29:50;;;;;;;19.30;5.80;;;;;;;16.81;100.00;101906.31;5078989;28;20040;-53
2022/05/14 04:32:16;;;;;;;22.05;6.18;;;;;;;17.07;100.00;101908.16;5085628;28;20282;-54
2022/05/14 04:34:42;;;;;;;21.83;6.20;;;;;;;16.80;100.00;101918.16;5085205;28;20067;-51
2022/05/14 04:37:08;;;;;;;19.58;8.25;;;;;;;17.23;100.00;101916.84;5073150;28;20102;-53
2022/05/14 04:39:35;;;;;;;18.08;7.65;;;;;;;17.42;100.00;101931.31;5090756;28;20044;-54
2022/05/14 04:42:03;;;;;;;25.10;6.18;;;;;;;17.51;100.00;101929.19;5080361;28;20039;-54
2022/05/14 04:44:31;;;;;;;24.30;6.70;;;;;;;17.63;100.00;101928.31;5084581;28;20049;-51
2022/05/14 04:46:57;;;;;;;21.17;6.50;;;;;;;17.09;100.00;101927.69;5074105;28;20128;-51
2022/05/14 04:49:23;;;;;;;17.92;5.97;;;;;;;16.88;100.00;101931.47;5090492;28;20059;-51
2022/05/14 04:51:49;;;;;;;25.80;7.70;;;;;;;16.86;100.00;101934.38;5077414;28;20048;-53
2022/05/14 04:54:15;;;;;;;23.98;6.53;;;;;;;17.24;100.00;101935.53;5086243;28;20045;-52
2022/05/14 04:56:42;;;;;;;15.07;7.20;;;;;;;17.59;100.00;101942.47;5084992;28;20063;-54
2022/05/14 04:59:08;;;;;;;18.83;8.45;;;;;;;17.61;100.00;101935.81;5077933;28;20037;-56
2022/05/14 05:01:34;;;;;;;16.40;6.47;;;;;;;17.21;100.00;101933.28;5075504;28;20057;-56
2022/05/14 05:04:00;;;;;;;17.23;7.27;;;;;;;17.41;100.00;101941.28;5088400;28;20029;-53
2022/05/14 05:06:26;;;;;;;20.70;8.17;;;;;;;17.42;100.00;101942.13;5082682;28;20044;-51
2022/05/14 05:08:52;;;;;;;25.60;11.13;;;;;;;17.48;100.00;101946.69;5081137;28;20258;-54
2022/05/14 05:11:19;;;;;;;21.70;7.10;;;;;;;17.33;100.00;101945.09;5090486;28;20040;-56
2022/05/14 05:13:45;;;;;;;19.98;7.88;;;;;;;17.34;100.00;101944.03;5061263;28;20036;-54
2022/05/14 05:16:10;;;;;;;15.67;6.90;;;;;;;17.11;100.00;101949.94;5086944;28;20059;-55
2022/05/14 05:18:36;;;;;;;27.07;7.97;;;;;;;17.63;100.00;101944.53;5084791;28;20142;-54
2022/05/14 05:21:03;;;;;;;24.15;7.85;;;;;;;17.77;100.00;101949.88;5079413;28;20270;-55
2022/05/14 05:23:29;;;;;;;29.85;13.40;;;;;;;18.38;100.00;101957.63;5090357;28;20032;-51
2022/05/14 05:25:56;;;;;;;26.77;9.57;;;;;;;18.15;100.00;101961.75;5073964;28;20041;-54
2022/05/14 05:28:23;;;;;;;23.37;8.77;;;;;;;17.98;100.00;101956.81;5082693;28;20031;-55
2022/05/14 05:30:49;;;;;;;34.33;9.55;;;;;;;18.00;100.00;101953.91;5082120;28;20270;-54
2022/05/14 05:33:20;;;;;;;19.52;9.30;;;;;;;17.81;100.00;101953.81;5093732;28;20052;-53
2022/05/14 05:35:46;;;;;;;23.73;8.53;;;;;;;17.40;100.00;101965.84;5064960;28;20032;-52
2022/05/14 05:38:11;;;;;;;25.17;8.93;;;;;;;17.44;100.00;101958.97;5090422;28;20282;-50
2022/05/14 05:40:37;;;;;;;22.17;9.03;;;;;;;18.15;100.00;101970.69;5087395;28;20281;-54
2022/05/14 05:43:05;;;;;;;34.47;12.05;;;;;;;18.55;100.00;101976.84;5082976;28;20047;-55
2022/05/14 05:45:31;;;;;;;30.40;10.07;;;;;;;18.75;100.00;101974.81;5093816;28;20041;-53
2022/05/14 05:47:58;;;;;;;23.83;9.20;;;;;;;18.13;100.00;101977.38;5082579;28;20269;-53
2022/05/14 05:50:23;;;;;;;;;;;;;;;18.02;100.00;101973.50;5088799;28;20044;-53
2022/05/14 05:52:51;;;;;;;27.80;11.27;;;;;;;18.01;100.00;101983.47;5089466;28;19917;-54
2022/05/14 05:58:00;;;;;;;31.07;11.17;;;;;;;17.58;100.00;101986.78;5067984;28;20295;-55
2022/05/14 06:00:28;;;;;;;31.27;10.63;;;;;;;17.76;100.00;101986.06;5088106;28;20278;-55
2022/05/14 06:02:54;;;;;;;26.87;11.77;;;;;;;18.59;100.00;101991.63;5090180;28;20044;-52
2022/05/14 06:05:21;;;;;;;32.13;11.93;;;;;;;18.62;100.00;101993.88;5080211;28;20289;-54
2022/05/14 06:07:46;;;;;;;27.77;10.25;;;;;;;18.46;100.00;101996.09;5067666;28;20064;-52
2022/05/14 06:10:16;;;;;;;40.63;13.23;;;;;;;18.41;100.00;102001.34;5077254;28;20036;-52
2022/05/14 06:12:41;;;;;;;30.73;11.50;;;;;;;18.30;100.00;101989.31;5078732;28;20057;-50
2022/05/14 06:15:09;;;;;;;34.83;13.03;;;;;;;18.39;100.00;101989.88;5078879;28;20258;-54
2022/05/14 06:17:35;;;;;;;39.27;12.50;;;;;;;18.41;100.00;101997.81;5080470;28;20317;-55
2022/05/14 06:20:01;;;;;;;42.53;13.73;;;;;;;18.69;100.00;101993.81;5070522;28;20262;-52
2022/05/14 06:22:26;;;;;;;31.95;13.52;;;;;;;19.34;100.00;101996.09;5067828;28;20040;-55
2022/05/14 06:24:52;;;;;;;31.45;12.82;;;;;;;19.61;100.00;101995.81;5076690;28;20033;-51
2022/05/14 06:27:18;;;;;;;36.22;14.93;;;;;;;19.49;100.00;102003.03;5058818;28;20041;-53
2022/05/14 06:29:43;;;;;;;41.38;15.35;;;;;;;19.30;100.00;102000.34;5076974;28;20037;-52
2022/05/14 06:32:09;;;;;;;37.20;14.50;;;;;;;19.92;100.00;101995.84;5078339;28;20048;-53
2022/05/14 06:34:34;;;;;;;42.80;13.63;;;;;;;19.45;100.00;102004.56;5086438;28;20032;-52
2022/05/14 06:37:00;;;;;;;33.97;13.77;;;;;;;19.95;100.00;102000.00;5082709;28;20056;-54
2022/05/14 06:39:27;;;;;;;30.35;12.60;;;;;;;19.56;100.00;101990.22;5092861;28;20080;-56
2022/05/14 06:41:52;;;;;;;31.50;13.40;;;;;;;20.05;100.00;102000.25;5080263;28;20035;-54
2022/05/14 06:44:18;;;;;;;24.17;10.30;;;;;;;20.11;100.00;102007.50;5088641;28;20033;-52
2022/05/14 06:46:44;;;;;;;30.08;11.93;;;;;;;20.09;100.00;102015.03;5076366;28;20032;-49
2022/05/14 06:49:12;;;;;;;29.90;10.50;;;;;;;19.82;100.00;102009.94;5091062;28;20064;-54
2022/05/14 06:51:39;;;;;;;34.07;12.37;;;;;;;20.26;100.00;102003.50;5079122;28;20289;-51
2022/05/14 06:54:08;;;;;;;35.70;12.50;;;;;;;19.40;100.00;102007.94;5090239;28;20255;-55
2022/05/14 06:56:39;;;;;;;25.90;11.37;;;;;;;20.26;100.00;102014.34;5086196;28;20355;-52
2022/05/14 06:59:05;;;;;;;24.17;10.63;;;;;;;19.96;100.00;102013.34;5081958;28;20328;-54
2022/05/14 07:01:31;;;;;;;39.27;12.07;;;;;;;20.52;100.00;102004.13;5092275;28;20273;-52
2022/05/14 07:06:45;;;;;;;31.30;9.80;;;;;;;20.41;100.00;102013.91;5084585;28;20033;-55
2022/05/14 07:09:17;;;;;;;32.13;12.10;;;;;;;20.67;100.00;102014.56;5090581;28;20299;-57
2022/05/14 07:11:46;;;;;;;36.60;11.93;;;;;;;20.94;100.00;102012.22;5079154;28;20033;-55
2022/05/14 07:14:13;;;;;;;41.63;11.80;;;;;;;20.86;100.00;102005.25;5088106;28;20266;-51
2022/05/14 07:16:39;;;;;;;24.77;11.87;;;;;;;20.57;100.00;102013.25;5086207;28;20281;-51
2022/05/14 07:19:06;;;;;;;32.13;14.00;;;;;;;21.01;100.00;102017.56;5081445;28;20290;-53
2022/05/14 07:21:37;;;;;;;33.83;11.55;;;;;;;20.69;100.00;102020.59;5076838;28;20261;-51
2022/05/14 07:24:07;;;;;;;30.13;11.87;;;;;;;20.82;100.00;102020.38;5090150;28;20033;-51
2022/05/14 07:26:39;;;;;;;34.07;12.27;;;;;;;21.19;99.48;102020.16;5084944;28;20269;-50
2022/05/14 07:29:07;;;;;;;29.47;11.93;;;;;;;21.57;94.71;102031.53;5080786;28;20272;-53
2022/05/14 07:31:34;;;;;;;27.03;12.37;;;;;;;21.30;97.27;102029.34;5091677;28;20268;-50
2022/05/14 07:33:59;;;;;;;31.60;10.77;;;;;;;21.52;94.39;102030.59;5080104;28;20451;-51
2022/05/14 07:36:25;;;;;;;28.98;10.82;;;;;;;21.54;94.66;102029.31;5086674;28;20361;-52
2022/05/14 07:38:56;;;;;;;34.70;10.80;;;;;;;21.68;93.71;102034.50;5087370;28;20036;-50
2022/05/14 07:41:22;;;;;;;31.30;10.83;;;;;;;21.58;94.21;102033.19;5078542;28;20071;-54
2022/05/14 07:43:50;;;;;;;27.85;9.98;;;;;;;21.59;92.32;102037.56;5091373;28;20266;-54
2022/05/14 07:46:22;;;;;;;32.60;11.30;;;;;;;21.75;92.51;102048.81;5082305;28;20100;-52
2022/05/14 07:48:53;;;;;;;28.93;9.90;;;;;;;22.14;89.59;102043.53;5082974;28;20293;-50
2022/05/14 07:51:19;;;;;;;29.07;11.43;;;;;;;22.59;84.57;102035.63;5090828;28;20269;-53
2022/05/14 07:53:46;;;;;;;25.80;9.68;;;;;;;22.41;85.10;102034.78;5077691;28;20266;-51
2022/05/14 07:56:12;;;;;;;31.07;10.20;;;;;;;22.75;81.21;102036.72;5088194;28;20032;-48
2022/05/14 07:58:39;;;;;;;30.27;10.85;;;;;;;22.40;84.77;102043.19;5070599;28;20313;-49
2022/05/14 08:01:05;;;;;;;29.90;11.23;;;;;;;22.39;85.52;102039.66;5068717;28;20033;-51
2022/05/14 08:03:31;;;;;;;25.15;11.18;;;;;;;;;;5074801;28;20324;-53
2022/05/14 08:05:57;;;;;;;33.58;11.20;;;;;;;22.76;83.43;102041.09;5066845;28;20050;-53
2022/05/14 08:08:23;;;;;;;23.98;10.07;;;;;;;23.14;79.63;102044.09;5071575;28;20025;-51
2022/05/14 08:10:49;;;;;;;17.77;6.68;;;;;;;23.27;73.90;102043.75;5074411;28;20036;-54
2022/05/14 08:13:17;;;;;;;15.55;6.85;;;;;;;23.38;69.84;102041.16;5074237;28;20052;-50
2022/05/14 08:15:45;;;;;;;22.33;7.53;;;;;;;23.16;68.85;102047.38;5072219;28;20404;-55
2022/05/14 08:18:11;;;;;;;30.97;9.83;;;;;;;23.34;70.27;102044.41;5080734;28;20285;-53
2022/05/14 08:20:41;;;;;;;17.80;6.10;;;;;;;23.29;63.76;102043.50;5084372;28;20029;-53
2022/05/14 08:25:53;;;;;;;24.37;7.80;;;;;;;23.83;62.84;102037.34;5061880;28;20039;-53
2022/05/14 08:28:20;;;;;;;32.87;7.83;;;;;;;23.80;63.52;102047.94;5086587;28;20092;-53
2022/05/14 08:30:46;;;;;;;27.40;8.05;;;;;;;24.19;61.77;102051.38;5085305;28;20036;-51
2022/05/14 08:33:11;;;;;;;21.65;5.75;;;;;;;24.23;60.09;102053.63;5079581;28;20072;-53
2022/05/14 08:35:38;;;;;;;25.55;7.68;;;;;;;24.36;58.58;102053.19;5090760;28;20028;-55
2022/05/14 08:38:04;;;;;;;25.23;7.78;;;;;;;24.49;57.89;102044.56;5077306;28;20039;-53
2022/05/14 08:40:32;;;;;;;22.40;10.17;;;;;;;24.62;56.55;102048.75;5080749;28;20092;-50
2022/05/14 08:43:01;;;;;;;47.97;20.10;;;;;;;24.77;56.12;102045.34;5085909;28;20036;-50
2022/05/14 08:45:30;;;;;;;27.80;9.13;;;;;;;24.58;59.09;102049.53;5077446;28;20029;-54
2022/05/14 08:47:58;;;;;;;27.80;10.17;;;;;;;24.68;60.02;102046.06;5090051;28;20025;-53
2022/05/14 08:50:29;;;;;;;30.80;9.20;;;;;;;24.56;60.21;102041.56;5081167;28;20058;-49
2022/05/14 08:53:03;;;;;;;22.97;8.40;;;;;;;24.07;60.41;102053.47;5081127;28;20029;-56
2022/05/14 08:56:13;;;;;;;24.10;9.53;;;;;;;24.76;56.80;102042.84;5090449;28;20067;-52
2022/05/14 08:58:57;;;;;;;24.63;9.10;;;;;;;24.95;55.56;102045.16;5084048;28;20039;-53
2022/05/14 09:01:27;;;;;;;25.53;8.70;;;;;;;24.74;56.82;102053.19;5077868;28;20060;-52
2022/05/14 09:03:55;;;;;;;24.73;9.30;;;;;;;24.67;57.90;102047.94;5061916;28;20040;-54
2022/05/14 09:06:21;;;;;;;26.20;10.63;;;;;;;24.97;56.77;102054.78;5089979;28;20108;-51
2022/05/14 09:08:48;;;;;;;;;;;;;;;25.27;56.44;102052.50;5078464;28;20037;-54
2022/05/14 09:11:26;;;;;;;39.83;14.03;;;;;;;25.37;56.02;102046.22;5092843;28;19972;-54
2022/05/14 09:14:00;;;;;;;25.67;8.83;;;;;;;25.57;55.61;102054.53;5073309;28;20031;-53
2022/05/14 09:16:32;;;;;;;22.30;7.90;;;;;;;25.44;55.36;102053.09;5067004;28;20028;-53
2022/05/14 09:18:58;;;;;;;25.00;8.07;;;;;;;26.04;53.16;102054.69;5076338;28;20032;-55
2022/05/14 09:21:30;;;;;;;25.67;7.05;;;;;;;26.26;51.73;102051.75;5061814;28;20033;-52
2022/05/14 09:23:57;;;;;;;28.13;6.63;;;;;;;26.27;50.79;102052.53;5075695;28;20028;-55
2022/05/14 09:26:33;;;;;;;29.37;6.63;;;;;;;26.45;50.08;102060.22;5068277;28;20029;-52
2022/05/14 09:29:31;;;;;;;23.23;7.82;;;;;;;27.16;47.38;102062.38;5077711;28;20029;-52
2022/05/14 09:31:59;;;;;;;27.83;5.93;;;;;;;27.72;45.36;102066.03;5067294;28;20097;-52
2022/05/14 09:34:26;;;;;;;15.80;5.40;;;;;;;28.50;43.12;102057.28;5077741;28;20029;-57
2022/05/14 09:37:20;;;;;;;22.17;5.20;;;;;;;28.43;40.71;102063.09;5077576;28;20093;-52
2022/05/14 09:40:00;;;;;;;14.10;5.53;;;;;;;28.82;41.65;102062.22;5067467;28;20066;-52
2022/05/14 09:42:30;;;;;;;25.77;7.43;;;;;;;29.17;40.92;102062.13;5075696;28;20033;-52
2022/05/14 09:44:57;;;;;;;23.03;6.50;;;;;;;28.84;41.49;102059.19;5077640;28;20097;-55
2022/05/14 09:47:30;;;;;;;20.07;6.87;;;;;;;28.66;41.30;102060.69;5077702;28;20464;-55
2022/05/14 09:50:02;;;;;;;17.57;6.07;;;;;;;29.76;39.04;102065.53;5065605;28;20028;-57
2022/05/14 09:52:32;;;;;;;19.42;6.20;;;;;;;30.52;37.22;102063.03;5088836;28;20136;-55
2022/05/14 09:55:01;;;;;;;25.40;6.57;;;;;;;31.82;35.93;102069.66;5089547;28;20035;-50
2022/05/14 09:57:54;;;;;;;15.88;6.07;;;;;;;31.28;35.51;102064.72;5078185;28;20070;-50
2022/05/14 10:00:26;;;;;;;15.35;6.40;;;;;;;32.01;34.62;102075.00;5063632;28;20043;-52
2022/05/14 10:02:59;;;;;;;24.08;6.43;;;;;;;30.13;36.98;102071.38;5078381;28;20506;-52
2022/05/14 10:05:32;;;;;;;21.42;5.93;;;;;;;29.70;38.07;102074.19;5078616;28;20028;-55
2022/05/14 10:08:16;;;;;;;24.97;7.93;;;;;;;29.25;39.23;102066.19;5072867;28;20037;-50
2022/05/14 10:10:52;;;;;;;19.70;6.20;;;;;;;30.29;37.59;102068.38;5077425;28;20056;-55
2022/05/14 10:13:26;;;;;;;22.52;6.97;;;;;;;30.26;36.55;102057.97;5077863;28;20029;-53
2022/05/14 10:16:44;;;;;;;30.47;6.10;;;;;;;29.60;37.80;102067.69;5063212;28;20044;-52
2022/05/14 10:19:35;;;;;;;;;;;;;;;29.48;38.57;102067.28;5070874;28;20064;-56
2022/05/14 10:22:12;;;;;;;20.30;6.57;;;;;;;29.45;38.67;102059.63;5063142;28;19944;-51
2022/05/14 10:28:09;;;;;;;18.53;6.10;;;;;;;29.26;39.36;102060.38;5077356;28;20039;-53
2022/05/14 10:30:46;;;;;;;20.00;5.97;;;;;;;29.09;38.48;102065.53;5072951;28;20042;-56
2022/05/14 10:33:20;;;;;;;23.33;9.48;;;;;;;30.90;36.54;102072.03;5074566;28;20096;-52
2022/05/14 10:36:15;;;;;;;26.00;7.77;;;;;;;32.65;32.28;102075.97;5079673;28;20048;-51
2022/05/14 10:38:45;;;;;;;23.33;7.37;;;;;;;32.09;32.71;102067.91;5075332;28;20444;-51
2022/05/14 10:41:14;;;;;;;28.85;10.00;;;;;;;31.81;32.93;102055.00;5076966;28;20044;-54
2022/05/14 10:43:59;;;;;;;18.40;5.23;;;;;;;30.72;33.97;102065.47;5073230;28;20580;-56
2022/05/14 10:46:28;;;;;;;24.93;8.07;;;;;;;29.52;36.13;102068.34;5075515;28;20025;-52
2022/05/14 10:49:01;;;;;;;19.57;6.00;;;;;;;29.86;36.01;102070.09;5067312;28;20030;-51
2022/05/14 10:51:35;;;;;;;20.30;5.60;;;;;;;32.10;33.13;102070.38;5072153;28;20048;-50
2022/05/14 10:54:02;;;;;;;21.17;5.85;;;;;;;33.84;30.43;102067.88;5076320;28;20148;-50
2022/05/14 10:56:32;;;;;;;19.88;6.78;;;;;;;35.57;28.14;102076.38;5074455;28;20032;-51
2022/05/14 10:59:09;;;;;;;17.35;6.40;;;;;;;35.83;25.89;102077.31;5063619;28;20055;-51
2022/05/14 11:01:51;;;;;;;19.33;6.65;;;;;;;35.73;26.60;102078.53;5061850;28;20118;-54
2022/05/14 11:04:26;;;;;;;17.73;5.63;;;;;;;34.30;28.07;102076.69;5075539;28;20048;-51
2022/05/14 11:07:11;;;;;;;17.33;5.35;;;;;;;34.07;28.93;102076.06;5076367;28;20033;-52
2022/05/14 11:09:44;;;;;;;20.83;7.82;;;;;;;34.69;27.28;102071.22;5068752;28;20037;-54
2022/05/14 11:12:27;;;;;;;19.83;5.25;;;;;;;35.65;27.10;102077.47;5069161;28;20044;-55
2022/05/14 11:14:56;;;;;;;21.27;8.23;;;;;;;35.65;26.77;102079.41;5078687;28;20047;-54
2022/05/14 11:17:27;;;;;;;18.23;6.70;;;;;;;37.25;24.81;102086.59;5077775;28;20031;-51
2022/05/14 11:20:03;;;;;;;14.32;5.38;;;;;;;35.85;26.03;102073.03;5064020;28;20120;-53
2022/05/14 11:22:33;;;;;;;17.02;6.40;;;;;;;36.76;25.28;102081.81;5073795;28;20033;-53
2022/05/14 11:25:20;;;;;;;15.93;6.13;;;;;;;36.98;25.17;102085.31;5076232;28;20097;-52
2022/05/14 11:28:01;;;;;;;17.77;5.55;;;;;;;38.33;24.05;102085.38;5074866;28;20063;-52
2022/05/14 11:30:51;;;;;;;16.05;5.20;;;;;;;37.64;23.29;102080.63;5073138;28;20029;-53
2022/05/14 11:33:37;;;;;;;15.80;5.00;;;;;;;37.51;23.61;102082.63;5075511;28;20056;-53
2022/05/14 11:36:16;;;;;;;13.88;4.47;;;;;;;38.43;22.34;102089.63;5075131;28;20041;-54
2022/05/14 11:38:45;;;;;;;24.73;10.35;;;;;;;38.98;22.40;102084.25;5068556;28;20037;-54
2022/05/14 11:41:14;;;;;;;23.27;7.80;;;;;;;38.50;22.49;102086.22;5061223;28;20059;-56